createdAt,value
2023-02-22T00:00:43.046Z,4.93
2023-02-22T00:03:25.020Z,4.65
2023-02-22T00:05:55.012Z,4.82
2023-02-22T00:08:24.926Z,4.12
2023-02-22T00:10:51.970Z,4.10
2023-02-22T00:13:22.838Z,4.20
2023-02-22T00:15:50.215Z,4.57
2023-02-22T00:18:18.815Z,3.87
2023-02-22T00:20:46.076Z,4.68
2023-02-22T00:23:19.154Z,5.37
2023-02-22T00:25:47.473Z,4.35
2023-02-22T00:28:15.319Z,3.30
2023-02-22T00:30:43.751Z,4.40
2023-02-22T00:33:15.408Z,3.40
2023-02-22T00:35:45.915Z,3.97
2023-02-22T00:38:16.278Z,4.32
2023-02-22T00:40:45.301Z,4.05
2023-02-22T00:43:13.073Z,3.72
2023-02-22T00:45:41.287Z,3.85
2023-02-22T00:48:09.412Z,3.80
2023-02-22T00:50:36.678Z,7.80
2023-02-22T00:53:04.667Z,4.50
2023-02-22T00:55:34.988Z,4.53
2023-02-22T00:58:02.355Z,6.55
2023-02-22T01:00:36.376Z,4.60
2023-02-22T01:05:33.264Z,4.00
2023-02-22T01:08:01.841Z,4.43
2023-02-22T01:10:31.367Z,4.53
2023-02-22T01:13:00.072Z,4.30
2023-02-22T01:15:30.775Z,3.90
2023-02-22T01:17:59.524Z,4.60
2023-02-22T01:20:27.661Z,3.97
2023-02-22T01:22:56.398Z,3.83
2023-02-22T01:25:25.928Z,4.55
2023-02-22T01:27:53.521Z,3.90
2023-02-22T01:30:23.386Z,3.60
2023-02-22T01:32:52.925Z,3.95
2023-02-22T01:35:28.857Z,4.28
2023-02-22T01:37:58.073Z,3.42
2023-02-22T01:40:29.694Z,3.72
2023-02-22T01:42:59.825Z,3.35
2023-02-22T01:45:29.962Z,3.22
2023-02-22T01:48:28.692Z,3.40
2023-02-22T01:51:10.595Z,3.62
2023-02-22T01:54:02.122Z,3.47
2023-02-22T01:56:31.350Z,4.20
2023-02-22T01:59:02.739Z,3.78
2023-02-22T02:01:30.085Z,4.15
2023-02-22T02:03:59.911Z,4.35
2023-02-22T02:06:28.828Z,4.57
2023-02-22T02:09:11.064Z,5.47
2023-02-22T02:11:40.629Z,5.10
2023-02-22T02:14:09.266Z,4.62
2023-02-22T02:17:03.046Z,4.65
2023-02-22T02:19:40.084Z,5.55
2023-02-22T02:22:15.958Z,4.22
2023-02-22T02:24:55.315Z,4.28
2023-02-22T02:27:24.523Z,3.78
2023-02-22T02:30:22.292Z,4.70
2023-02-22T02:33:04.921Z,4.40
2023-02-22T02:35:35.381Z,4.05
2023-02-22T02:38:10.884Z,3.85
2023-02-22T02:41:05.762Z,4.40
2023-02-22T02:43:40.045Z,4.25
2023-02-22T02:46:21.422Z,4.93
2023-02-22T02:48:56.849Z,3.75
2023-02-22T02:51:28.647Z,3.85
2023-02-22T02:53:56.159Z,3.65
2023-02-22T02:56:23.863Z,4.10
2023-02-22T02:58:52.891Z,4.15
2023-02-22T03:01:34.920Z,3.67
2023-02-22T03:04:22.981Z,4.65
2023-02-22T03:06:50.025Z,4.15
2023-02-22T03:09:38.935Z,4.12
2023-02-22T03:12:08.304Z,4.18
2023-02-22T03:14:43.806Z,4.53
2023-02-22T03:17:16.725Z,4.10
2023-02-22T03:19:53.776Z,3.87
2023-02-22T03:22:32.633Z,4.40
2023-02-22T03:25:14.380Z,4.45
2023-02-22T03:27:46.473Z,4.03
2023-02-22T03:30:19.483Z,4.90
2023-02-22T03:32:49.550Z,5.07
2023-02-22T03:35:23.009Z,5.82
2023-02-22T03:37:55.906Z,4.90
2023-02-22T03:40:28.604Z,5.45
2023-02-22T03:43:00.506Z,5.30
2023-02-22T03:45:30.041Z,5.62
2023-02-22T03:48:15.833Z,5.25
2023-02-22T03:50:43.376Z,5.12
2023-02-22T03:53:10.987Z,4.93
2023-02-22T03:55:38.838Z,4.43
2023-02-22T03:58:11.059Z,4.85
2023-02-22T04:00:38.691Z,5.10
2023-02-22T04:03:06.272Z,4.82
2023-02-22T04:05:33.521Z,4.53
2023-02-22T04:08:02.062Z,4.82
2023-02-22T04:10:31.725Z,4.72
2023-02-22T04:13:00.031Z,4.12
2023-02-22T04:15:27.325Z,5.03
2023-02-22T04:17:55.816Z,4.78
2023-02-22T04:20:25.580Z,4.97
2023-02-22T04:22:54.130Z,4.65
2023-02-22T04:25:23.126Z,4.87
2023-02-22T04:27:51.310Z,5.22
2023-02-22T04:30:20.710Z,5.47
2023-02-22T04:32:48.704Z,5.10
2023-02-22T04:35:17.569Z,5.10
2023-02-22T04:37:44.656Z,5.22
2023-02-22T04:40:12.344Z,5.53
2023-02-22T04:42:39.959Z,4.87
2023-02-22T04:45:09.308Z,5.82
2023-02-22T04:47:37.532Z,5.68
2023-02-22T04:50:06.739Z,4.78
2023-02-22T04:52:33.932Z,4.82
2023-02-22T04:55:01.451Z,5.78
2023-02-22T04:57:28.707Z,5.43
2023-02-22T04:59:56.166Z,7.20
2023-02-22T05:02:25.471Z,6.03
2023-02-22T05:04:52.662Z,5.30
2023-02-22T05:07:19.850Z,7.47
2023-02-22T05:09:47.341Z,5.68
2023-02-22T05:12:15.182Z,6.25
2023-02-22T05:14:42.746Z,6.00
2023-02-22T05:17:10.172Z,6.78
2023-02-22T05:19:37.404Z,6.90
2023-02-22T05:22:05.733Z,7.32
2023-02-22T05:24:33.166Z,6.78
2023-02-22T05:27:00.407Z,5.53
2023-02-22T05:29:27.575Z,6.03
2023-02-22T05:31:55.114Z,6.50
2023-02-22T05:34:22.354Z,6.22
2023-02-22T05:36:49.522Z,7.32
2023-02-22T05:39:16.949Z,6.00
2023-02-22T05:41:44.160Z,5.70
2023-02-22T05:44:11.498Z,6.10
2023-02-22T05:46:39.122Z,5.87
2023-02-22T05:49:06.390Z,6.47
2023-02-22T05:51:33.781Z,6.85
2023-02-22T05:54:01.396Z,6.10
2023-02-22T05:56:30.530Z,5.72
2023-02-22T05:58:58.460Z,5.40
2023-02-22T06:01:27.053Z,5.82
2023-02-22T06:03:54.523Z,6.20
2023-02-22T06:06:22.438Z,6.72
2023-02-22T06:08:49.825Z,6.20
2023-02-22T06:11:17.658Z,5.60
2023-02-22T06:13:52.601Z,6.28
2023-02-22T06:16:21.882Z,6.25
2023-02-22T06:18:49.569Z,6.35
2023-02-22T06:21:17.726Z,6.30
2023-02-22T06:23:45.463Z,6.72
2023-02-22T06:26:12.701Z,6.87
2023-02-22T06:28:39.879Z,8.35
2023-02-22T06:31:07.317Z,7.53
2023-02-22T06:33:34.486Z,7.80
2023-02-22T06:36:01.737Z,7.20
2023-02-22T06:38:29.310Z,6.65
2023-02-22T06:40:56.755Z,6.78
2023-02-22T06:43:24.926Z,8.48
2023-02-22T06:45:52.810Z,6.40
2023-02-22T06:48:20.041Z,6.15
2023-02-22T06:50:47.363Z,8.43
2023-02-22T06:53:15.359Z,9.02
2023-02-22T06:55:42.505Z,7.62
2023-02-22T06:58:09.602Z,6.78
2023-02-22T07:00:37.051Z,5.43
2023-02-22T07:03:04.955Z,6.62
2023-02-22T07:05:32.122Z,9.43
2023-02-22T07:08:05.340Z,6.78
2023-02-22T07:10:33.943Z,6.07
2023-02-22T07:13:01.977Z,7.18
2023-02-22T07:15:30.846Z,7.47
2023-02-22T07:17:58.093Z,6.30
2023-02-22T07:20:27.322Z,7.03
2023-02-22T07:22:54.571Z,7.18
2023-02-22T07:25:23.390Z,13.38
2023-02-22T07:27:52.481Z,7.57
2023-02-22T07:30:25.986Z,9.07
2023-02-22T07:32:55.419Z,9.25
2023-02-22T07:35:31.102Z,8.82
2023-02-22T07:37:58.933Z,7.57
2023-02-22T07:40:27.449Z,6.60
2023-02-22T07:43:01.393Z,7.35
2023-02-22T07:45:33.607Z,6.60
2023-02-22T07:48:02.212Z,6.62
2023-02-22T07:50:31.393Z,6.47
2023-02-22T07:53:00.883Z,8.65
2023-02-22T07:55:30.266Z,6.45
2023-02-22T07:57:59.998Z,7.20
2023-02-22T08:00:32.682Z,7.03
2023-02-22T08:03:01.862Z,7.53
2023-02-22T08:05:29.961Z,6.95
2023-02-22T08:07:57.382Z,7.82
2023-02-22T08:10:25.790Z,7.07
2023-02-22T08:12:54.063Z,7.32
2023-02-22T08:15:24.416Z,6.90
2023-02-22T08:17:53.443Z,6.75
2023-02-22T08:20:21.337Z,6.40
2023-02-22T08:22:49.428Z,7.03
2023-02-22T08:25:18.653Z,6.53
2023-02-22T08:27:45.941Z,5.82
2023-02-22T08:30:18.925Z,6.28
2023-02-22T08:32:47.599Z,6.15
2023-02-22T08:35:16.592Z,7.22
2023-02-22T08:37:45.284Z,7.03
2023-02-22T08:40:14.990Z,6.03
2023-02-22T08:42:42.278Z,7.35
2023-02-22T08:45:10.084Z,6.90
2023-02-22T08:47:37.529Z,6.57
2023-02-22T08:50:05.454Z,7.15
2023-02-22T08:52:32.723Z,6.72
2023-02-22T08:55:00.161Z,6.87
2023-02-22T08:57:27.318Z,6.30
2023-02-22T08:59:54.554Z,6.70
2023-02-22T09:02:22.601Z,6.10
2023-02-22T09:04:49.928Z,9.32
2023-02-22T09:07:17.566Z,5.85
2023-02-22T09:09:45.494Z,6.05
2023-02-22T09:12:12.939Z,4.97
2023-02-22T09:14:40.076Z,6.53
2023-02-22T09:17:07.593Z,6.70
2023-02-22T09:19:34.871Z,5.60
2023-02-22T09:22:02.132Z,5.47
2023-02-22T09:24:29.688Z,5.95
2023-02-22T09:26:56.904Z,6.00
2023-02-22T09:29:26.118Z,6.22
2023-02-22T09:31:55.359Z,6.68
2023-02-22T09:34:29.664Z,6.22
2023-02-22T09:36:58.180Z,6.07
2023-02-22T09:39:25.695Z,6.35
2023-02-22T09:42:09.624Z,6.20
2023-02-22T09:44:44.363Z,6.30
2023-02-22T09:47:18.170Z,6.15
2023-02-22T09:52:37.425Z,4.78
2023-02-22T09:55:10.002Z,5.68
2023-02-22T09:57:42.461Z,5.55
2023-02-22T10:00:20.353Z,5.78
2023-02-22T10:03:12.307Z,5.40
2023-02-22T10:05:42.017Z,5.78
2023-02-22T10:08:15.247Z,5.72
2023-02-22T10:10:46.002Z,5.82
2023-02-22T10:13:39.309Z,5.60
2023-02-22T10:16:44.425Z,5.65
2023-02-22T10:19:49.670Z,6.18
2023-02-22T10:22:39.336Z,5.32
2023-02-22T10:25:12.931Z,6.43
2023-02-22T10:27:42.932Z,5.97
2023-02-22T10:30:25.480Z,6.18
2023-02-22T10:33:00.227Z,5.07
2023-02-22T10:35:30.131Z,5.85
2023-02-22T10:38:06.956Z,6.55
2023-02-22T10:40:34.933Z,6.20
2023-02-22T10:43:04.693Z,8.90
2023-02-22T10:45:34.358Z,7.07
2023-02-22T10:48:08.583Z,7.53
2023-02-22T10:53:04.122Z,7.75
2023-02-22T10:55:31.340Z,6.95
2023-02-22T10:58:04.570Z,7.32
2023-02-22T11:00:36.692Z,10.63
2023-02-22T11:03:18.891Z,8.63
2023-02-22T11:05:47.001Z,6.60
2023-02-22T11:08:33.190Z,7.60
2023-02-22T11:11:03.357Z,6.95
2023-02-22T11:13:40.266Z,7.82
2023-02-22T11:16:28.612Z,11.30
2023-02-22T11:19:23.209Z,6.15
2023-02-22T11:21:53.442Z,6.07
2023-02-22T11:24:24.255Z,6.05
2023-02-22T11:26:57.550Z,6.82
2023-02-22T11:29:35.652Z,7.12
2023-02-22T11:32:14.156Z,5.80
2023-02-22T11:34:45.169Z,6.07
2023-02-22T11:37:25.915Z,6.55
2023-02-22T11:40:22.038Z,6.40
2023-02-22T11:43:05.924Z,6.95
2023-02-22T11:45:33.241Z,7.77
2023-02-22T11:48:03.168Z,5.75
2023-02-22T11:50:39.269Z,6.10
2023-02-22T11:53:22.148Z,6.72
2023-02-22T11:56:28.406Z,5.43
2023-02-22T11:59:19.210Z,5.28
2023-02-22T12:02:25.224Z,5.50
2023-02-22T12:05:10.774Z,6.00
2023-02-22T12:08:18.864Z,5.05
2023-02-22T12:11:12.442Z,8.23
2023-02-22T12:13:54.569Z,5.68
2023-02-22T12:16:46.897Z,5.65
2023-02-22T12:19:32.322Z,6.30
2023-02-22T12:22:07.930Z,6.07
2023-02-22T12:24:42.422Z,6.05
2023-02-22T12:27:17.196Z,5.93
2023-02-22T12:29:47.125Z,5.72
2023-02-22T12:32:23.656Z,6.05
2023-02-22T12:34:55.322Z,6.20
2023-02-22T12:37:27.826Z,5.85
2023-02-22T12:40:23.947Z,5.65
2023-02-22T12:43:27.563Z,5.93
2023-02-22T12:46:00.901Z,10.95
2023-02-22T12:48:40.782Z,7.72
2023-02-22T12:51:38.892Z,6.15
2023-02-22T12:54:25.708Z,6.62
2023-02-22T12:57:34.300Z,5.00
2023-02-22T13:00:18.175Z,4.93
2023-02-22T13:02:54.463Z,6.93
2023-02-22T13:05:22.049Z,6.05
2023-02-22T13:07:56.864Z,9.80
2023-02-22T13:10:47.236Z,5.35
2023-02-22T13:13:29.123Z,6.53
2023-02-22T13:15:59.720Z,6.25
2023-02-22T13:18:39.809Z,5.68
2023-02-22T13:21:16.491Z,5.50
2023-02-22T13:23:48.998Z,7.60
2023-02-22T13:26:31.776Z,6.07
2023-02-22T13:29:08.729Z,5.40
2023-02-22T13:31:37.665Z,3.55
2023-02-22T13:34:37.849Z,13.05
2023-02-22T13:37:31.889Z,18.25
2023-02-22T13:40:19.919Z,2.78
2023-02-22T13:42:50.094Z,3.03
2023-02-22T13:45:51.676Z,3.78
2023-02-22T13:48:37.270Z,10.90
2023-02-22T13:51:33.167Z,6.75
2023-02-22T13:54:09.038Z,7.40
2023-02-22T13:56:36.305Z,13.32
2023-02-22T13:59:04.345Z,6.90
2023-02-22T14:01:48.837Z,3.58
2023-02-22T14:04:28.694Z,12.30
2023-02-22T14:07:00.855Z,4.32
2023-02-22T14:09:59.100Z,4.70
2023-02-22T14:12:29.033Z,6.82
2023-02-22T14:15:28.204Z,10.93
2023-02-22T14:18:04.847Z,8.35
2023-02-22T14:20:35.946Z,5.90
2023-02-22T14:23:41.094Z,5.82
2023-02-22T14:26:28.026Z,18.87
2023-02-22T14:28:58.165Z,5.68
2023-02-22T14:31:36.465Z,5.97
2023-02-22T14:34:09.097Z,5.35
2023-02-22T14:36:54.530Z,5.90
2023-02-22T14:39:44.211Z,5.10
2023-02-22T14:42:17.881Z,9.73
2023-02-22T14:45:12.540Z,11.60
2023-02-22T14:47:50.196Z,5.05
2023-02-22T14:50:51.301Z,6.70
2023-02-22T14:53:40.817Z,5.87
2023-02-22T14:56:16.131Z,4.95
2023-02-22T14:58:48.944Z,6.25
2023-02-22T15:01:20.227Z,53.53
2023-02-22T15:03:51.484Z,5.70
2023-02-22T15:06:28.731Z,9.20
2023-02-22T15:09:30.229Z,10.80
2023-02-22T15:12:05.472Z,13.75
2023-02-22T15:14:37.817Z,6.55
2023-02-22T15:17:13.673Z,5.10
2023-02-22T15:19:42.008Z,5.50
2023-02-22T15:22:21.418Z,7.43
2023-02-22T15:24:59.366Z,9.18
2023-02-22T15:27:26.835Z,12.60
2023-02-22T15:30:04.690Z,12.05
2023-02-22T15:32:34.461Z,19.27
2023-02-22T15:35:26.506Z,11.63
2023-02-22T15:38:01.810Z,11.45
2023-02-22T15:40:42.930Z,10.93
2023-02-22T15:43:36.241Z,15.32
2023-02-22T15:46:06.733Z,25.58
2023-02-22T15:48:35.705Z,19.92
2023-02-22T15:51:07.123Z,8.60
2023-02-22T15:53:44.397Z,12.45
2023-02-22T15:56:17.450Z,16.52
2023-02-22T15:58:46.638Z,20.12
2023-02-22T16:01:17.751Z,18.85
2023-02-22T16:04:04.699Z,12.45
2023-02-22T16:06:41.970Z,11.60
2023-02-22T16:09:15.857Z,7.93
2023-02-22T16:11:47.029Z,6.95
2023-02-22T16:14:25.234Z,17.85
2023-02-22T16:17:24.735Z,16.65
2023-02-22T16:19:53.131Z,8.23
2023-02-22T16:22:29.176Z,13.30
2023-02-22T16:25:32.906Z,10.10
2023-02-22T16:28:06.094Z,6.82
2023-02-22T16:30:36.055Z,7.90
2023-02-22T16:33:13.666Z,23.23
2023-02-22T16:35:51.646Z,36.40
2023-02-22T16:38:19.465Z,9.18
2023-02-22T16:40:53.791Z,11.05
2023-02-22T16:43:23.847Z,12.52
2023-02-22T16:45:52.992Z,12.55
2023-02-22T16:48:23.137Z,39.80
2023-02-22T16:50:52.037Z,16.40
2023-02-22T16:53:21.502Z,13.70
2023-02-22T16:55:50.163Z,14.52
2023-02-22T16:58:18.181Z,13.60
2023-02-22T17:00:45.643Z,12.52
2023-02-22T17:03:18.696Z,14.00
2023-02-22T17:05:46.177Z,13.00
2023-02-22T17:08:13.293Z,27.58
2023-02-22T17:10:40.356Z,35.08
2023-02-22T17:13:21.807Z,28.55
2023-02-22T17:15:51.233Z,33.30
2023-02-22T17:18:22.891Z,37.53
2023-02-22T17:20:51.704Z,50.63
2023-02-22T17:23:20.047Z,35.05
2023-02-22T17:25:55.647Z,32.72
2023-02-22T17:28:24.640Z,37.35
2023-02-22T17:30:53.352Z,52.20
2023-02-22T17:33:22.916Z,37.08
2023-02-22T17:35:50.275Z,81.82
2023-02-22T17:38:20.386Z,40.53
2023-02-22T17:40:54.845Z,50.90
2023-02-22T17:43:23.279Z,41.67
2023-02-22T17:45:51.101Z,37.65
2023-02-22T17:48:18.581Z,26.45
2023-02-22T17:50:47.895Z,26.12
2023-02-22T17:53:15.753Z,34.90
2023-02-22T17:55:43.259Z,31.10
2023-02-22T17:58:14.921Z,30.45
2023-02-22T18:00:45.783Z,43.22
2023-02-22T18:03:16.271Z,31.08
2023-02-22T18:05:46.302Z,29.55
2023-02-22T18:08:14.821Z,20.27
2023-02-22T18:10:42.900Z,22.58
2023-02-22T18:13:12.189Z,21.17
2023-02-22T18:15:40.237Z,19.40
2023-02-22T18:18:08.480Z,16.25
2023-02-22T18:20:38.576Z,14.98
2023-02-22T18:23:07.531Z,22.08
2023-02-22T18:25:36.238Z,20.42
2023-02-22T18:28:06.180Z,20.50
2023-02-22T18:30:35.917Z,21.10
2023-02-22T18:33:03.812Z,21.95
2023-02-22T18:35:31.058Z,20.85
2023-02-22T18:37:58.500Z,19.02
2023-02-22T18:40:25.646Z,20.80
2023-02-22T18:42:52.812Z,27.90
2023-02-22T18:45:21.189Z,24.05
2023-02-22T18:47:48.705Z,23.45
2023-02-22T18:50:17.270Z,25.80
2023-02-22T18:52:45.846Z,27.40
2023-02-22T18:55:21.076Z,43.42
2023-02-22T18:57:50.742Z,61.10
2023-02-22T19:00:24.211Z,55.88
2023-02-22T19:02:53.657Z,61.78
2023-02-22T19:05:21.109Z,83.45
2023-02-22T19:07:48.411Z,52.13
2023-02-22T19:10:15.978Z,29.80
2023-02-22T19:12:44.670Z,30.95
2023-02-22T19:15:12.121Z,29.02
2023-02-22T19:17:41.753Z,30.12
2023-02-22T19:20:10.774Z,34.70
2023-02-22T19:25:10.365Z,34.90
2023-02-22T19:27:38.013Z,37.72
2023-02-22T19:30:05.705Z,39.95
2023-02-22T19:32:33.599Z,39.97
2023-02-22T19:35:06.720Z,35.22
2023-02-22T19:37:35.694Z,30.10
2023-02-22T19:40:07.245Z,26.17
2023-02-22T19:42:34.859Z,29.05
2023-02-22T19:45:02.128Z,32.65
2023-02-22T19:47:29.506Z,30.05
2023-02-22T19:49:59.672Z,31.85
2023-02-22T19:52:28.940Z,27.55
2023-02-22T19:54:56.517Z,28.55
2023-02-22T19:57:24.349Z,29.73
2023-02-22T19:59:51.854Z,34.03
2023-02-22T20:02:22.550Z,39.92
2023-02-22T20:04:51.256Z,36.15
2023-02-22T20:07:18.477Z,23.30
2023-02-22T20:09:45.662Z,21.15
2023-02-22T20:12:13.208Z,20.65
2023-02-22T20:14:40.463Z,27.23
2023-02-22T20:17:08.692Z,17.50
2023-02-22T20:19:37.668Z,19.55
2023-02-22T20:22:04.819Z,19.87
2023-02-22T20:24:32.053Z,18.95
2023-02-22T20:26:59.559Z,17.92
2023-02-22T20:29:29.734Z,16.92
2023-02-22T20:31:59.305Z,16.23
2023-02-22T20:34:27.170Z,14.93
2023-02-22T20:36:54.221Z,14.82
2023-02-22T20:39:21.294Z,16.23
2023-02-22T20:41:49.023Z,14.48
2023-02-22T20:44:17.847Z,15.02
2023-02-22T20:46:45.958Z,16.50
2023-02-22T20:49:17.196Z,15.40
2023-02-22T20:51:45.462Z,14.48
2023-02-22T20:54:13.041Z,14.20
2023-02-22T20:56:42.094Z,12.10
2023-02-22T20:59:13.010Z,12.70
2023-02-22T21:01:40.492Z,10.02
2023-02-22T21:04:10.016Z,11.80
2023-02-22T21:06:38.973Z,9.23
2023-02-22T21:09:08.753Z,9.35
2023-02-22T21:11:36.019Z,10.13
2023-02-22T21:14:03.696Z,10.20
2023-02-22T21:16:34.013Z,9.52
2023-02-22T21:19:03.528Z,9.95
2023-02-22T21:21:31.831Z,9.25
2023-02-22T21:24:02.252Z,10.88
2023-02-22T21:26:31.319Z,9.70
2023-02-22T21:29:03.867Z,8.45
2023-02-22T21:31:32.015Z,9.73
2023-02-22T21:34:00.274Z,8.95
2023-02-22T21:36:28.281Z,9.20
2023-02-22T21:39:00.619Z,10.10
2023-02-22T21:41:30.073Z,9.60
2023-02-22T21:43:58.498Z,9.55
2023-02-22T21:46:27.553Z,9.32
2023-02-22T21:48:58.522Z,10.20
2023-02-22T21:51:31.445Z,9.02
2023-02-22T21:54:01.444Z,9.45
2023-02-22T21:56:29.829Z,8.73
2023-02-22T21:59:05.277Z,8.98
2023-02-22T22:01:35.310Z,9.88
2023-02-22T22:04:04.583Z,8.90
2023-02-22T22:06:34.365Z,7.70
2023-02-22T22:09:04.977Z,8.65
2023-02-22T22:11:32.401Z,8.70
2023-02-22T22:14:00.413Z,9.27
2023-02-22T22:16:29.722Z,8.13
2023-02-22T22:18:57.769Z,8.15
2023-02-22T22:21:25.491Z,7.82
2023-02-22T22:23:56.671Z,8.13
2023-02-22T22:26:25.323Z,8.52
2023-02-22T22:28:55.958Z,7.47
2023-02-22T22:31:24.800Z,8.35
2023-02-22T22:33:52.576Z,8.55
2023-02-22T22:36:23.683Z,8.60
2023-02-22T22:38:52.703Z,8.43
2023-02-22T22:41:21.723Z,7.43
2023-02-22T22:43:49.473Z,7.78
2023-02-22T22:46:18.041Z,7.22
2023-02-22T22:48:47.250Z,9.10
2023-02-22T22:51:18.509Z,7.87
2023-02-22T22:53:47.757Z,7.65
2023-02-22T22:56:26.886Z,8.05
2023-02-22T22:58:56.591Z,7.93
2023-02-22T23:01:33.604Z,7.78
2023-02-22T23:04:02.606Z,7.87
2023-02-22T23:06:32.998Z,7.50
2023-02-22T23:09:11.440Z,7.30
2023-02-22T23:11:45.174Z,8.50
2023-02-22T23:14:21.447Z,7.25
2023-02-22T23:16:50.056Z,7.35
2023-02-22T23:19:19.283Z,8.27
2023-02-22T23:21:48.072Z,8.35
2023-02-22T23:24:17.465Z,7.78
2023-02-22T23:26:49.025Z,7.68
2023-02-22T23:29:22.912Z,7.87
2023-02-22T23:31:50.612Z,6.80
2023-02-22T23:34:21.146Z,7.20
2023-02-22T23:36:49.358Z,7.32
2023-02-22T23:39:21.915Z,6.95
2023-02-22T23:41:56.516Z,6.55
2023-02-22T23:44:23.870Z,7.30
2023-02-22T23:46:56.934Z,7.37
2023-02-22T23:49:37.890Z,7.00
2023-02-22T23:52:05.921Z,8.23
2023-02-22T23:54:36.503Z,6.97
2023-02-22T23:57:04.884Z,8.10
2023-02-22T23:59:33.008Z,11.00
